Flight Track Log - Related Links

Times and Time Zones

All times are in EDT time to prevent confusion due to time zone crossing. See the UCA596 flight status page for this flight to view local times or setup timezone preferences in your user account.

Time Position Orientation Groundspeed Altitude Reporting Facility
EDT Latitude Longitude Course Direction KTS MPH feet Rate Location/Type
Sat 01:04:09 PM 38.9500 -77.5000 311° West 144 166 1,600  Level Potomac TRACON
Sat 01:05:09 PM 38.9833 -77.5500 311° West 184 212 2,900 1,438 Climbing Potomac TRACON
Sat 01:06:10 PM 39.0333 -77.5500 360° North 194 223 4,500 1,617 Climbing Potomac TRACON
Sat 01:07:56 PM 39.1353 -77.5397 North 214 246 7,400 1,554 Climbing Washington Center
Sat 01:08:56 PM 39.1831 -77.5569 344° North 198 228 8,800 1,300 Climbing Washington Center
Sat 01:09:56 PM 39.2347 -77.5719 347° North 186 214 10,000 1,373 Climbing Washington Center
Sat 01:10:54 PM 39.2892 -77.5519 16° North 181 208 11,500 1,509 Climbing Washington Center
Sat 01:12:51 PM 39.3947 -77.5228 12° North 184 212 14,400 1,424 Climbing New York Center
Sat 01:13:51 PM 39.4453 -77.5114 10° North 184 212 15,700 1,200 Climbing New York Center
Sat 01:14:51 PM 39.4964 -77.4975 12° North 184 212 16,800 1,100 Climbing New York Center
Sat 01:15:51 PM 39.5492 -77.4836 11° North 184 212 17,900 1,100 Climbing New York Center
Sat 01:16:51 PM 39.5917 -77.4689 15° North 179 206 19,000 550 Climbing New York Center
Sat 01:17:51 PM 39.6531 -77.4531 11° North 191 220 19,000  Level New York Center
Sat 01:18:51 PM 39.7136 -77.4508 North 220 253 19,000  Level New York Center
Sat 01:19:51 PM 39.7886 -77.4525 359° North 239 275 19,000  Level New York Center
Sat 01:20:51 PM 39.8533 -77.4506 North 251 289 19,000  Level New York Center
Sat 01:21:51 PM 39.9306 -77.4497 360° North 251 289 19,000  Level New York Center
Sat 01:22:51 PM 39.9933 -77.4503 360° North 251 289 19,000  Level New York Center
Sat 01:23:51 PM 40.0639 -77.4164 20° North 246 283 19,000  Level New York Center
Sat 01:24:51 PM 40.1219 -77.3839 23° Northeast 246 283 19,000  Level New York Center
Sat 01:25:51 PM 40.1953 -77.3419 24° Northeast 251 289 19,000  Level New York Center
Sat 01:26:51 PM 40.2536 -77.3067 25° Northeast 251 289 19,000  Level New York Center
Sat 01:27:51 PM 40.3247 -77.2644 24° Northeast 251 289 19,000  Level New York Center
Sat 01:28:51 PM 40.3828 -77.2317 23° Northeast 251 289 19,000  Level New York Center
Sat 01:29:51 PM 40.4561 -77.1867 25° Northeast 251 289 19,000  Level New York Center
Sat 01:30:51 PM 40.5164 -77.1514 24° Northeast 251 289 19,000  Level New York Center
Sat 01:31:51 PM 40.5897 -77.1061 25° Northeast 258 297 19,000 -400 Level New York Center
Sat 01:32:51 PM 40.6500 -77.0708 24° Northeast 263 303 18,200 -1,000 Descending New York Center
Sat 01:33:51 PM 40.7275 -77.0203 26° Northeast 263 303 17,000 -600 Descending New York Center
Sat 01:34:51 PM 40.7900 -76.9850 23° Northeast 263 303 17,000  Level New York Center
Sat 01:35:51 PM 40.8653 -76.9394 25° Northeast 263 303 17,000  Level New York Center
Sat 01:36:51 PM 40.9278 -76.9014 25° Northeast 263 303 17,000  Level New York Center
Sat 01:37:51 PM 41.0031 -76.8558 25° Northeast 263 303 17,000  Level New York Center
Sat 01:38:51 PM 41.0675 -76.8147 26° Northeast 263 303 17,000  Level New York Center
Sat 01:39:51 PM 41.1364 -76.7742 24° Northeast 263 303 17,000  Level New York Center
Sat 01:40:51 PM 41.2050 -76.7333 24° Northeast 263 303 17,000  Level New York Center
Sat 01:41:51 PM 41.2758 -76.6897 25° Northeast 263 303 17,000  Level New York Center
Sat 01:42:51 PM 41.3428 -76.6461 26° Northeast 263 303 17,000  Level New York Center
Sat 01:43:51 PM 41.4050 -76.6072 25° Northeast 263 303 17,000  Level New York Center
Sat 01:44:51 PM 41.4739 -76.5633 26° Northeast 263 303 17,000 -550 Level New York Center
Sat 01:45:51 PM 41.5475 -76.5031 31° Northeast 263 303 15,900 -1,150 Descending New York Center
Sat 01:46:51 PM 41.6094 -76.4306 41° Northeast 284 327 14,700 -1,300 Descending New York Center
Sat 01:47:51 PM 41.6650 -76.3550 45° Northeast 298 343 13,300 -1,500 Descending New York Center
Sat 01:48:51 PM 41.7219 -76.2958 38° Northeast 288 331 11,700 -1,550 Descending New York Center
Sat 01:49:51 PM 41.7814 -76.2283 40° Northeast 278 320 10,200 -1,350 Descending New York Center
Sat 01:50:51 PM 41.8581 -76.1900 20° North 265 305 9,000 -1,150 Descending New York Center
Sat 01:51:51 PM 41.9244 -76.1508 24° Northeast 259 298 7,900 -1,150 Descending New York Center
Sat 01:52:51 PM 41.9883 -76.1142 23° Northeast 259 298 6,700 -1,250 Descending New York Center
Sat 01:53:51 PM 42.0439 -76.0825 23° Northeast 249 287 5,400 -1,250 Descending New York Center
Sat 01:54:51 PM 42.1061 -76.0456 24° Northeast 244 281 4,200 -700 Descending New York Center
Sat 01:55:51 PM 42.1642 -76.0472 359° North 232 267 4,000 -250 Descending New York Center
Sat 01:56:51 PM 42.2061 -76.0872 325° Northwest 190 219 3,700 -500 Descending New York Center
Sat 01:57:51 PM 42.2408 -76.0592 31° Northeast 162 186 3,000 -650 Descending New York Center
Sat 01:58:51 PM 42.2469 -76.0119 80° East 111 128 2,400 -400 Descending New York Center
Sat 01:59:51 PM 42.2461 -75.9811 92° East 111 128 2,200 7,300 Descending New York Center
Sat 02:00:51 PM 42.2536 -75.9536 70° East 111 128 17,000 14,800 Climbing New York Center
Sat 02:02:00 PM 42.2000 -75.9667 118° Southeast  Level FlightAware Approximate
Sat 02:09:00 PM 42.2084 -75.9796 118° Southeast  Level Estimated
Sat 02:10:00 PM 42.2084 -75.9796 118° Southeast  Level Estimated

Login

Don't have an account? Register now (free) for customized features, flight alerts, and more!